sensor_id;sensor_type;location;lat;lon;timestamp;P1;durP1;ratioP1;P2;durP2;ratioP2
47523;SDS011;33253;42.144;25.884;2022-12-07T00:00:42;38.17;;;17.50;;
47523;SDS011;33253;42.144;25.884;2022-12-07T00:03:08;42.90;;;19.25;;
47523;SDS011;33253;42.144;25.884;2022-12-07T00:05:33;43.05;;;20.27;;
47523;SDS011;33253;42.144;25.884;2022-12-07T00:07:59;44.72;;;20.70;;
47523;SDS011;33253;42.144;25.884;2022-12-07T00:10:24;47.17;;;20.10;;
47523;SDS011;33253;42.144;25.884;2022-12-07T00:12:50;50.03;;;21.77;;
47523;SDS011;33253;42.144;25.884;2022-12-07T00:15:15;54.92;;;20.00;;
47523;SDS011;33253;42.144;25.884;2022-12-07T00:17:41;52.47;;;20.17;;
47523;SDS011;33253;42.144;25.884;2022-12-07T00:20:06;45.13;;;19.05;;
47523;SDS011;33253;42.144;25.884;2022-12-07T00:22:32;47.38;;;19.17;;
47523;SDS011;33253;42.144;25.884;2022-12-07T00:24:57;41.80;;;19.05;;
47523;SDS011;33253;42.144;25.884;2022-12-07T00:27:23;38.28;;;18.70;;
47523;SDS011;33253;42.144;25.884;2022-12-07T00:29:49;41.85;;;17.85;;
47523;SDS011;33253;42.144;25.884;2022-12-07T00:32:15;44.13;;;18.92;;
47523;SDS011;33253;42.144;25.884;2022-12-07T00:34:40;38.63;;;18.83;;
47523;SDS011;33253;42.144;25.884;2022-12-07T00:37:05;39.60;;;18.33;;
47523;SDS011;33253;42.144;25.884;2022-12-07T00:39:31;45.47;;;18.95;;
47523;SDS011;33253;42.144;25.884;2022-12-07T00:41:56;55.78;;;28.20;;
47523;SDS011;33253;42.144;25.884;2022-12-07T00:44:22;46.00;;;23.08;;
47523;SDS011;33253;42.144;25.884;2022-12-07T00:46:47;52.53;;;27.48;;
47523;SDS011;33253;42.144;25.884;2022-12-07T00:49:12;46.90;;;19.90;;
47523;SDS011;33253;42.144;25.884;2022-12-07T00:51:38;48.83;;;19.42;;
47523;SDS011;33253;42.144;25.884;2022-12-07T00:54:03;42.83;;;18.77;;
47523;SDS011;33253;42.144;25.884;2022-12-07T00:56:29;43.05;;;17.98;;
47523;SDS011;33253;42.144;25.884;2022-12-07T01:01:21;44.72;;;18.20;;
47523;SDS011;33253;42.144;25.884;2022-12-07T01:03:47;41.85;;;18.13;;
47523;SDS011;33253;42.144;25.884;2022-12-07T01:06:13;37.78;;;17.23;;
47523;SDS011;33253;42.144;25.884;2022-12-07T01:08:40;34.38;;;16.08;;
47523;SDS011;33253;42.144;25.884;2022-12-07T01:11:07;34.25;;;16.17;;
47523;SDS011;33253;42.144;25.884;2022-12-07T01:13:34;36.97;;;16.20;;
47523;SDS011;33253;42.144;25.884;2022-12-07T01:16:01;33.72;;;16.80;;
47523;SDS011;33253;42.144;25.884;2022-12-07T01:18:29;37.10;;;17.33;;
47523;SDS011;33253;42.144;25.884;2022-12-07T01:20:57;36.92;;;16.92;;
47523;SDS011;33253;42.144;25.884;2022-12-07T01:23:23;36.35;;;17.70;;
47523;SDS011;33253;42.144;25.884;2022-12-07T01:25:59;38.10;;;17.90;;
47523;SDS011;33253;42.144;25.884;2022-12-07T01:28:26;42.10;;;18.52;;
47523;SDS011;33253;42.144;25.884;2022-12-07T01:31:02;43.22;;;19.00;;
47523;SDS011;33253;42.144;25.884;2022-12-07T01:33:33;43.20;;;18.27;;
47523;SDS011;33253;42.144;25.884;2022-12-07T01:38:30;45.08;;;18.85;;
47523;SDS011;33253;42.144;25.884;2022-12-07T01:40:57;43.55;;;19.55;;
47523;SDS011;33253;42.144;25.884;2022-12-07T01:43:23;48.33;;;20.05;;
47523;SDS011;33253;42.144;25.884;2022-12-07T01:45:50;41.72;;;17.17;;
47523;SDS011;33253;42.144;25.884;2022-12-07T01:48:16;42.33;;;18.55;;
47523;SDS011;33253;42.144;25.884;2022-12-07T01:50:47;42.35;;;19.77;;
47523;SDS011;33253;42.144;25.884;2022-12-07T01:56:37;44.45;;;18.55;;
47523;SDS011;33253;42.144;25.884;2022-12-07T01:59:07;36.80;;;18.80;;
47523;SDS011;33253;42.144;25.884;2022-12-07T02:01:33;43.92;;;19.35;;
47523;SDS011;33253;42.144;25.884;2022-12-07T02:03:58;38.83;;;18.77;;
47523;SDS011;33253;42.144;25.884;2022-12-07T02:06:24;37.17;;;17.15;;
47523;SDS011;33253;42.144;25.884;2022-12-07T02:08:50;42.88;;;17.65;;
47523;SDS011;33253;42.144;25.884;2022-12-07T02:11:17;35.67;;;16.77;;
47523;SDS011;33253;42.144;25.884;2022-12-07T02:13:43;43.20;;;17.73;;
47523;SDS011;33253;42.144;25.884;2022-12-07T02:22:14;43.03;;;18.45;;
47523;SDS011;33253;42.144;25.884;2022-12-07T02:30:55;40.63;;;16.67;;
47523;SDS011;33253;42.144;25.884;2022-12-07T02:33:31;38.88;;;19.15;;
47523;SDS011;33253;42.144;25.884;2022-12-07T02:36:05;44.65;;;20.35;;
47523;SDS011;33253;42.144;25.884;2022-12-07T02:38:39;39.03;;;19.55;;
47523;SDS011;33253;42.144;25.884;2022-12-07T02:41:28;43.53;;;17.35;;
47523;SDS011;33253;42.144;25.884;2022-12-07T02:43:59;40.70;;;17.88;;
47523;SDS011;33253;42.144;25.884;2022-12-07T02:46:28;38.30;;;17.45;;
47523;SDS011;33253;42.144;25.884;2022-12-07T02:48:57;38.75;;;18.40;;
47523;SDS011;33253;42.144;25.884;2022-12-07T02:51:24;47.42;;;19.80;;
47523;SDS011;33253;42.144;25.884;2022-12-07T02:53:52;48.65;;;20.35;;
47523;SDS011;33253;42.144;25.884;2022-12-07T02:56:28;45.90;;;20.92;;
47523;SDS011;33253;42.144;25.884;2022-12-07T03:18:32;66.75;;;22.25;;
47523;SDS011;33253;42.144;25.884;2022-12-07T03:21:09;39.53;;;19.40;;
47523;SDS011;33253;42.144;25.884;2022-12-07T03:23:43;50.58;;;20.83;;
47523;SDS011;33253;42.144;25.884;2022-12-07T03:26:14;46.38;;;19.65;;
47523;SDS011;33253;42.144;25.884;2022-12-07T03:28:42;44.60;;;18.98;;
47523;SDS011;33253;42.144;25.884;2022-12-07T03:34:02;44.75;;;18.88;;
47523;SDS011;33253;42.144;25.884;2022-12-07T03:36:53;34.85;;;18.15;;
47523;SDS011;33253;42.144;25.884;2022-12-07T03:41:59;41.50;;;18.92;;
47523;SDS011;33253;42.144;25.884;2022-12-07T03:44:29;37.55;;;17.80;;
47523;SDS011;33253;42.144;25.884;2022-12-07T03:57:31;37.10;;;18.52;;
47523;SDS011;33253;42.144;25.884;2022-12-07T04:00:00;36.17;;;18.05;;
47523;SDS011;33253;42.144;25.884;2022-12-07T04:02:28;31.85;;;18.35;;
47523;SDS011;33253;42.144;25.884;2022-12-07T04:04:54;40.35;;;18.13;;
47523;SDS011;33253;42.144;25.884;2022-12-07T04:07:21;36.10;;;18.35;;
47523;SDS011;33253;42.144;25.884;2022-12-07T04:09:47;38.53;;;17.45;;
47523;SDS011;33253;42.144;25.884;2022-12-07T04:12:12;42.58;;;18.08;;
47523;SDS011;33253;42.144;25.884;2022-12-07T04:14:38;35.75;;;17.27;;
47523;SDS011;33253;42.144;25.884;2022-12-07T04:17:03;40.17;;;18.73;;
47523;SDS011;33253;42.144;25.884;2022-12-07T04:19:30;42.28;;;18.70;;
47523;SDS011;33253;42.144;25.884;2022-12-07T04:21:58;37.75;;;18.52;;
47523;SDS011;33253;42.144;25.884;2022-12-07T04:24:25;40.85;;;18.88;;
47523;SDS011;33253;42.144;25.884;2022-12-07T04:26:51;38.88;;;17.95;;
47523;SDS011;33253;42.144;25.884;2022-12-07T04:29:17;34.40;;;17.13;;
47523;SDS011;33253;42.144;25.884;2022-12-07T04:31:43;36.97;;;17.75;;
47523;SDS011;33253;42.144;25.884;2022-12-07T04:34:09;35.60;;;19.10;;
47523;SDS011;33253;42.144;25.884;2022-12-07T04:36:39;42.15;;;18.63;;
47523;SDS011;33253;42.144;25.884;2022-12-07T04:39:05;37.03;;;18.77;;
47523;SDS011;33253;42.144;25.884;2022-12-07T04:41:38;36.60;;;17.67;;
47523;SDS011;33253;42.144;25.884;2022-12-07T04:44:04;35.15;;;17.40;;
47523;SDS011;33253;42.144;25.884;2022-12-07T04:46:32;34.25;;;16.55;;
47523;SDS011;33253;42.144;25.884;2022-12-07T04:48:58;41.88;;;17.75;;
47523;SDS011;33253;42.144;25.884;2022-12-07T04:51:26;32.13;;;17.20;;
47523;SDS011;33253;42.144;25.884;2022-12-07T04:53:53;37.08;;;17.48;;
47523;SDS011;33253;42.144;25.884;2022-12-07T04:56:19;39.08;;;16.92;;
47523;SDS011;33253;42.144;25.884;2022-12-07T04:58:46;36.28;;;17.67;;
47523;SDS011;33253;42.144;25.884;2022-12-07T05:01:13;36.65;;;18.23;;
47523;SDS011;33253;42.144;25.884;2022-12-07T05:03:41;44.50;;;21.50;;
47523;SDS011;33253;42.144;25.884;2022-12-07T05:06:07;40.08;;;19.30;;
47523;SDS011;33253;42.144;25.884;2022-12-07T05:08:33;47.03;;;19.88;;
47523;SDS011;33253;42.144;25.884;2022-12-07T05:11:00;41.70;;;19.13;;
47523;SDS011;33253;42.144;25.884;2022-12-07T05:13:26;43.97;;;20.23;;
47523;SDS011;33253;42.144;25.884;2022-12-07T05:15:52;44.40;;;19.92;;
47523;SDS011;33253;42.144;25.884;2022-12-07T05:18:17;43.00;;;18.70;;
47523;SDS011;33253;42.144;25.884;2022-12-07T05:20:43;42.33;;;21.13;;
47523;SDS011;33253;42.144;25.884;2022-12-07T05:23:09;49.53;;;23.85;;
47523;SDS011;33253;42.144;25.884;2022-12-07T05:25:35;40.67;;;21.48;;
47523;SDS011;33253;42.144;25.884;2022-12-07T05:28:01;40.13;;;18.85;;
47523;SDS011;33253;42.144;25.884;2022-12-07T05:30:26;41.95;;;19.58;;
47523;SDS011;33253;42.144;25.884;2022-12-07T05:32:52;45.15;;;20.13;;
47523;SDS011;33253;42.144;25.884;2022-12-07T05:35:18;46.95;;;21.23;;
47523;SDS011;33253;42.144;25.884;2022-12-07T05:37:44;47.30;;;20.20;;
47523;SDS011;33253;42.144;25.884;2022-12-07T05:40:10;39.45;;;19.65;;
47523;SDS011;33253;42.144;25.884;2022-12-07T05:42:36;46.20;;;19.30;;
47523;SDS011;33253;42.144;25.884;2022-12-07T05:45:02;50.83;;;20.90;;
47523;SDS011;33253;42.144;25.884;2022-12-07T05:47:28;54.85;;;23.35;;
47523;SDS011;33253;42.144;25.884;2022-12-07T05:49:53;44.28;;;21.77;;
47523;SDS011;33253;42.144;25.884;2022-12-07T05:52:19;45.45;;;20.10;;
47523;SDS011;33253;42.144;25.884;2022-12-07T05:54:44;42.55;;;21.10;;
47523;SDS011;33253;42.144;25.884;2022-12-07T05:57:10;43.60;;;20.77;;
47523;SDS011;33253;42.144;25.884;2022-12-07T05:59:35;56.38;;;26.33;;
47523;SDS011;33253;42.144;25.884;2022-12-07T06:02:02;48.67;;;26.67;;
47523;SDS011;33253;42.144;25.884;2022-12-07T06:04:31;47.13;;;23.27;;
47523;SDS011;33253;42.144;25.884;2022-12-07T06:06:57;46.95;;;21.77;;
47523;SDS011;33253;42.144;25.884;2022-12-07T06:09:23;44.20;;;22.00;;
47523;SDS011;33253;42.144;25.884;2022-12-07T06:11:50;43.38;;;21.00;;
47523;SDS011;33253;42.144;25.884;2022-12-07T06:14:34;43.97;;;20.73;;
47523;SDS011;33253;42.144;25.884;2022-12-07T06:17:00;56.63;;;22.33;;
47523;SDS011;33253;42.144;25.884;2022-12-07T06:19:26;47.05;;;21.02;;
47523;SDS011;33253;42.144;25.884;2022-12-07T06:21:51;43.45;;;21.38;;
47523;SDS011;33253;42.144;25.884;2022-12-07T06:24:17;44.08;;;22.23;;
47523;SDS011;33253;42.144;25.884;2022-12-07T06:26:43;44.72;;;22.20;;
47523;SDS011;33253;42.144;25.884;2022-12-07T06:29:10;43.00;;;20.70;;
47523;SDS011;33253;42.144;25.884;2022-12-07T06:31:36;44.90;;;21.33;;
47523;SDS011;33253;42.144;25.884;2022-12-07T06:34:03;47.80;;;22.98;;
47523;SDS011;33253;42.144;25.884;2022-12-07T06:36:30;49.20;;;22.05;;
47523;SDS011;33253;42.144;25.884;2022-12-07T06:38:56;47.20;;;21.38;;
47523;SDS011;33253;42.144;25.884;2022-12-07T06:41:22;52.03;;;23.77;;
47523;SDS011;33253;42.144;25.884;2022-12-07T06:43:48;53.78;;;24.48;;
47523;SDS011;33253;42.144;25.884;2022-12-07T06:46:14;53.83;;;25.48;;
47523;SDS011;33253;42.144;25.884;2022-12-07T06:48:40;48.80;;;23.23;;
47523;SDS011;33253;42.144;25.884;2022-12-07T06:51:06;51.28;;;23.45;;
47523;SDS011;33253;42.144;25.884;2022-12-07T06:53:32;50.47;;;23.25;;
47523;SDS011;33253;42.144;25.884;2022-12-07T06:55:57;51.33;;;25.33;;
47523;SDS011;33253;42.144;25.884;2022-12-07T06:58:23;54.08;;;24.95;;
47523;SDS011;33253;42.144;25.884;2022-12-07T07:00:48;54.95;;;25.45;;
47523;SDS011;33253;42.144;25.884;2022-12-07T07:03:16;52.65;;;24.77;;
47523;SDS011;33253;42.144;25.884;2022-12-07T07:05:42;50.17;;;24.23;;
47523;SDS011;33253;42.144;25.884;2022-12-07T07:08:09;46.28;;;25.08;;
47523;SDS011;33253;42.144;25.884;2022-12-07T07:10:34;53.25;;;25.45;;
47523;SDS011;33253;42.144;25.884;2022-12-07T07:13:01;42.80;;;22.92;;
47523;SDS011;33253;42.144;25.884;2022-12-07T07:15:26;43.90;;;24.58;;
47523;SDS011;33253;42.144;25.884;2022-12-07T07:17:52;52.05;;;24.80;;
47523;SDS011;33253;42.144;25.884;2022-12-07T07:20:17;45.17;;;24.77;;
47523;SDS011;33253;42.144;25.884;2022-12-07T07:22:43;45.58;;;23.08;;
47523;SDS011;33253;42.144;25.884;2022-12-07T07:25:09;46.78;;;22.70;;
47523;SDS011;33253;42.144;25.884;2022-12-07T07:27:34;46.50;;;24.38;;
47523;SDS011;33253;42.144;25.884;2022-12-07T07:30:00;49.05;;;22.50;;
47523;SDS011;33253;42.144;25.884;2022-12-07T07:32:25;49.55;;;24.52;;
47523;SDS011;33253;42.144;25.884;2022-12-07T07:34:51;51.05;;;24.13;;
47523;SDS011;33253;42.144;25.884;2022-12-07T07:37:16;51.72;;;25.00;;
47523;SDS011;33253;42.144;25.884;2022-12-07T07:39:42;50.08;;;25.33;;
47523;SDS011;33253;42.144;25.884;2022-12-07T07:42:07;44.22;;;26.30;;
47523;SDS011;33253;42.144;25.884;2022-12-07T07:44:33;46.47;;;26.15;;
47523;SDS011;33253;42.144;25.884;2022-12-07T07:46:59;50.60;;;27.20;;
47523;SDS011;33253;42.144;25.884;2022-12-07T07:49:25;54.25;;;29.42;;
47523;SDS011;33253;42.144;25.884;2022-12-07T07:51:50;48.42;;;25.67;;
47523;SDS011;33253;42.144;25.884;2022-12-07T07:54:16;49.72;;;27.23;;
47523;SDS011;33253;42.144;25.884;2022-12-07T07:56:41;53.92;;;27.95;;
47523;SDS011;33253;42.144;25.884;2022-12-07T07:59:07;51.75;;;26.77;;
47523;SDS011;33253;42.144;25.884;2022-12-07T08:01:33;50.90;;;26.48;;
47523;SDS011;33253;42.144;25.884;2022-12-07T08:03:59;50.28;;;26.20;;
47523;SDS011;33253;42.144;25.884;2022-12-07T08:06:24;53.45;;;26.60;;
47523;SDS011;33253;42.144;25.884;2022-12-07T08:08:50;47.92;;;25.40;;
47523;SDS011;33253;42.144;25.884;2022-12-07T08:11:15;48.67;;;26.30;;
47523;SDS011;33253;42.144;25.884;2022-12-07T08:13:41;51.35;;;26.50;;
47523;SDS011;33253;42.144;25.884;2022-12-07T08:16:08;46.13;;;24.85;;
47523;SDS011;33253;42.144;25.884;2022-12-07T08:18:35;44.85;;;25.02;;
47523;SDS011;33253;42.144;25.884;2022-12-07T08:21:02;51.10;;;26.23;;
47523;SDS011;33253;42.144;25.884;2022-12-07T08:23:28;48.58;;;25.83;;
47523;SDS011;33253;42.144;25.884;2022-12-07T08:25:54;52.78;;;25.85;;
47523;SDS011;33253;42.144;25.884;2022-12-07T08:28:20;47.33;;;24.20;;
47523;SDS011;33253;42.144;25.884;2022-12-07T08:30:46;49.00;;;25.02;;
47523;SDS011;33253;42.144;25.884;2022-12-07T08:33:11;44.63;;;24.25;;
47523;SDS011;33253;42.144;25.884;2022-12-07T08:35:36;43.20;;;24.05;;
47523;SDS011;33253;42.144;25.884;2022-12-07T08:38:02;46.03;;;23.85;;
47523;SDS011;33253;42.144;25.884;2022-12-07T08:40:35;45.78;;;24.20;;
47523;SDS011;33253;42.144;25.884;2022-12-07T08:43:00;42.88;;;23.60;;
47523;SDS011;33253;42.144;25.884;2022-12-07T08:45:25;43.53;;;24.30;;
47523;SDS011;33253;42.144;25.884;2022-12-07T08:48:01;43.20;;;24.00;;
47523;SDS011;33253;42.144;25.884;2022-12-07T08:50:31;44.13;;;23.50;;
47523;SDS011;33253;42.144;25.884;2022-12-07T08:52:58;40.55;;;23.02;;
47523;SDS011;33253;42.144;25.884;2022-12-07T08:55:24;47.70;;;23.88;;
47523;SDS011;33253;42.144;25.884;2022-12-07T08:57:52;43.17;;;24.05;;
47523;SDS011;33253;42.144;25.884;2022-12-07T09:00:18;42.97;;;23.25;;
47523;SDS011;33253;42.144;25.884;2022-12-07T09:02:44;43.40;;;22.70;;
47523;SDS011;33253;42.144;25.884;2022-12-07T09:05:10;42.88;;;21.20;;
47523;SDS011;33253;42.144;25.884;2022-12-07T09:07:36;39.38;;;21.58;;
47523;SDS011;33253;42.144;25.884;2022-12-07T09:10:03;50.50;;;26.75;;
47523;SDS011;33253;42.144;25.884;2022-12-07T09:12:29;49.60;;;25.35;;
47523;SDS011;33253;42.144;25.884;2022-12-07T09:14:55;46.60;;;23.85;;
47523;SDS011;33253;42.144;25.884;2022-12-07T09:17:20;42.50;;;21.52;;
47523;SDS011;33253;42.144;25.884;2022-12-07T09:19:46;42.95;;;22.17;;
47523;SDS011;33253;42.144;25.884;2022-12-07T09:22:11;45.30;;;22.48;;
47523;SDS011;33253;42.144;25.884;2022-12-07T09:24:37;43.33;;;22.05;;
47523;SDS011;33253;42.144;25.884;2022-12-07T09:27:02;40.97;;;20.80;;
47523;SDS011;33253;42.144;25.884;2022-12-07T09:29:28;40.55;;;21.50;;
47523;SDS011;33253;42.144;25.884;2022-12-07T09:31:53;43.15;;;20.05;;
47523;SDS011;33253;42.144;25.884;2022-12-07T09:34:20;36.17;;;20.52;;
47523;SDS011;33253;42.144;25.884;2022-12-07T09:36:46;38.60;;;21.45;;
47523;SDS011;33253;42.144;25.884;2022-12-07T09:39:11;38.78;;;21.70;;
47523;SDS011;33253;42.144;25.884;2022-12-07T09:41:40;40.13;;;21.63;;
47523;SDS011;33253;42.144;25.884;2022-12-07T09:44:14;37.22;;;22.08;;
47523;SDS011;33253;42.144;25.884;2022-12-07T09:46:48;38.85;;;22.52;;
47523;SDS011;33253;42.144;25.884;2022-12-07T09:49:19;37.85;;;21.10;;
47523;SDS011;33253;42.144;25.884;2022-12-07T09:51:47;39.58;;;19.88;;
47523;SDS011;33253;42.144;25.884;2022-12-07T09:54:24;42.72;;;21.58;;
47523;SDS011;33253;42.144;25.884;2022-12-07T09:56:50;37.17;;;22.05;;
47523;SDS011;33253;42.144;25.884;2022-12-07T09:59:16;45.75;;;23.92;;
47523;SDS011;33253;42.144;25.884;2022-12-07T10:01:43;45.25;;;25.10;;
47523;SDS011;33253;42.144;25.884;2022-12-07T10:06:41;44.00;;;24.40;;
47523;SDS011;33253;42.144;25.884;2022-12-07T10:09:11;50.92;;;28.65;;
47523;SDS011;33253;42.144;25.884;2022-12-07T10:11:59;53.95;;;30.92;;
47523;SDS011;33253;42.144;25.884;2022-12-07T10:14:23;48.30;;;28.77;;
47523;SDS011;33253;42.144;25.884;2022-12-07T10:16:48;48.90;;;27.52;;
47523;SDS011;33253;42.144;25.884;2022-12-07T10:24:29;52.35;;;29.25;;
47523;SDS011;33253;42.144;25.884;2022-12-07T10:26:55;53.15;;;30.27;;
47523;SDS011;33253;42.144;25.884;2022-12-07T10:29:28;51.28;;;29.17;;
47523;SDS011;33253;42.144;25.884;2022-12-07T10:32:21;48.42;;;29.50;;
47523;SDS011;33253;42.144;25.884;2022-12-07T10:35:18;50.38;;;29.90;;
47523;SDS011;33253;42.144;25.884;2022-12-07T10:37:46;50.65;;;29.58;;
47523;SDS011;33253;42.144;25.884;2022-12-07T10:40:26;53.20;;;28.70;;
47523;SDS011;33253;42.144;25.884;2022-12-07T10:51:46;45.95;;;30.00;;
47523;SDS011;33253;42.144;25.884;2022-12-07T11:00:22;51.38;;;29.88;;
47523;SDS011;33253;42.144;25.884;2022-12-07T11:05:26;50.67;;;29.17;;
47523;SDS011;33253;42.144;25.884;2022-12-07T11:16:00;46.67;;;29.20;;
47523;SDS011;33253;42.144;25.884;2022-12-07T11:21:09;44.20;;;27.45;;
47523;SDS011;33253;42.144;25.884;2022-12-07T11:37:32;44.67;;;25.98;;
47523;SDS011;33253;42.144;25.884;2022-12-07T11:40:02;45.20;;;26.60;;
47523;SDS011;33253;42.144;25.884;2022-12-07T11:42:39;43.13;;;27.45;;
47523;SDS011;33253;42.144;25.884;2022-12-07T11:47:54;43.45;;;25.60;;
47523;SDS011;33253;42.144;25.884;2022-12-07T11:50:32;41.00;;;25.77;;
47523;SDS011;33253;42.144;25.884;2022-12-07T11:53:26;41.63;;;25.85;;
47523;SDS011;33253;42.144;25.884;2022-12-07T11:56:09;39.57;;;25.63;;
47523;SDS011;33253;42.144;25.884;2022-12-07T12:03:40;48.47;;;26.83;;
47523;SDS011;33253;42.144;25.884;2022-12-07T12:06:10;41.63;;;26.08;;
47523;SDS011;33253;42.144;25.884;2022-12-07T12:08:38;44.75;;;26.33;;
47523;SDS011;33253;42.144;25.884;2022-12-07T12:22:39;43.50;;;25.55;;
47523;SDS011;33253;42.144;25.884;2022-12-07T12:25:17;39.53;;;24.77;;
47523;SDS011;33253;42.144;25.884;2022-12-07T12:27:49;37.45;;;23.60;;
47523;SDS011;33253;42.144;25.884;2022-12-07T12:33:06;41.75;;;25.25;;
47523;SDS011;33253;42.144;25.884;2022-12-07T12:35:41;43.47;;;24.85;;
47523;SDS011;33253;42.144;25.884;2022-12-07T12:41:51;35.05;;;21.98;;
47523;SDS011;33253;42.144;25.884;2022-12-07T12:54:35;37.13;;;24.05;;
47523;SDS011;33253;42.144;25.884;2022-12-07T13:00:20;47.47;;;31.23;;
47523;SDS011;33253;42.144;25.884;2022-12-07T13:02:54;44.80;;;27.15;;
47523;SDS011;33253;42.144;25.884;2022-12-07T13:05:27;38.70;;;24.10;;
47523;SDS011;33253;42.144;25.884;2022-12-07T13:13:03;40.33;;;24.38;;
47523;SDS011;33253;42.144;25.884;2022-12-07T13:20:52;38.63;;;23.13;;
47523;SDS011;33253;42.144;25.884;2022-12-07T13:36:56;34.97;;;21.80;;
47523;SDS011;33253;42.144;25.884;2022-12-07T13:39:24;35.03;;;21.23;;
47523;SDS011;33253;42.144;25.884;2022-12-07T13:41:52;37.20;;;22.08;;
47523;SDS011;33253;42.144;25.884;2022-12-07T13:44:20;39.35;;;21.58;;
47523;SDS011;33253;42.144;25.884;2022-12-07T13:49:57;39.60;;;22.13;;
47523;SDS011;33253;42.144;25.884;2022-12-07T13:52:29;39.42;;;23.02;;
47523;SDS011;33253;42.144;25.884;2022-12-07T13:55:15;48.45;;;27.27;;
47523;SDS011;33253;42.144;25.884;2022-12-07T13:57:42;43.45;;;24.70;;
47523;SDS011;33253;42.144;25.884;2022-12-07T14:00:15;40.65;;;23.90;;
47523;SDS011;33253;42.144;25.884;2022-12-07T14:05:32;41.58;;;23.15;;
47523;SDS011;33253;42.144;25.884;2022-12-07T14:08:00;44.65;;;24.55;;
47523;SDS011;33253;42.144;25.884;2022-12-07T14:13:01;44.47;;;25.73;;
47523;SDS011;33253;42.144;25.884;2022-12-07T14:15:29;43.50;;;24.83;;
47523;SDS011;33253;42.144;25.884;2022-12-07T14:17:57;45.13;;;25.25;;
47523;SDS011;33253;42.144;25.884;2022-12-07T14:20:37;42.70;;;24.50;;
47523;SDS011;33253;42.144;25.884;2022-12-07T14:23:05;42.95;;;25.60;;
47523;SDS011;33253;42.144;25.884;2022-12-07T14:25:47;42.88;;;24.80;;
47523;SDS011;33253;42.144;25.884;2022-12-07T14:31:14;46.75;;;26.85;;
47523;SDS011;33253;42.144;25.884;2022-12-07T14:33:41;42.72;;;25.98;;
47523;SDS011;33253;42.144;25.884;2022-12-07T14:36:10;49.08;;;26.00;;
47523;SDS011;33253;42.144;25.884;2022-12-07T14:38:37;43.58;;;24.80;;
47523;SDS011;33253;42.144;25.884;2022-12-07T14:41:03;56.88;;;27.80;;
47523;SDS011;33253;42.144;25.884;2022-12-07T14:43:48;45.47;;;25.67;;
47523;SDS011;33253;42.144;25.884;2022-12-07T14:46:13;43.53;;;27.52;;
47523;SDS011;33253;42.144;25.884;2022-12-07T14:48:39;42.55;;;26.15;;
47523;SDS011;33253;42.144;25.884;2022-12-07T14:51:04;49.05;;;28.10;;
47523;SDS011;33253;42.144;25.884;2022-12-07T14:53:35;47.05;;;26.95;;
47523;SDS011;33253;42.144;25.884;2022-12-07T14:56:04;43.97;;;26.60;;
47523;SDS011;33253;42.144;25.884;2022-12-07T14:58:33;47.83;;;27.75;;
47523;SDS011;33253;42.144;25.884;2022-12-07T15:00:59;43.85;;;25.60;;
47523;SDS011;33253;42.144;25.884;2022-12-07T15:03:25;47.92;;;27.75;;
47523;SDS011;33253;42.144;25.884;2022-12-07T15:05:50;44.08;;;26.33;;
47523;SDS011;33253;42.144;25.884;2022-12-07T15:08:16;51.03;;;28.25;;
47523;SDS011;33253;42.144;25.884;2022-12-07T15:10:41;41.78;;;24.30;;
47523;SDS011;33253;42.144;25.884;2022-12-07T15:13:07;48.65;;;27.45;;
47523;SDS011;33253;42.144;25.884;2022-12-07T15:15:52;46.67;;;25.73;;
47523;SDS011;33253;42.144;25.884;2022-12-07T15:18:18;41.38;;;26.58;;
47523;SDS011;33253;42.144;25.884;2022-12-07T15:20:45;43.92;;;27.50;;
47523;SDS011;33253;42.144;25.884;2022-12-07T15:23:11;44.35;;;25.83;;
47523;SDS011;33253;42.144;25.884;2022-12-07T15:25:40;46.58;;;26.45;;
47523;SDS011;33253;42.144;25.884;2022-12-07T15:28:06;43.17;;;25.67;;
47523;SDS011;33253;42.144;25.884;2022-12-07T15:30:31;45.22;;;25.98;;
47523;SDS011;33253;42.144;25.884;2022-12-07T15:32:57;48.28;;;28.02;;
47523;SDS011;33253;42.144;25.884;2022-12-07T15:35:22;51.72;;;28.05;;
47523;SDS011;33253;42.144;25.884;2022-12-07T15:37:47;45.47;;;27.27;;
47523;SDS011;33253;42.144;25.884;2022-12-07T15:40:13;43.92;;;26.73;;
47523;SDS011;33253;42.144;25.884;2022-12-07T15:42:39;44.85;;;25.80;;
47523;SDS011;33253;42.144;25.884;2022-12-07T15:45:05;47.80;;;28.30;;
47523;SDS011;33253;42.144;25.884;2022-12-07T15:47:33;49.13;;;27.83;;
47523;SDS011;33253;42.144;25.884;2022-12-07T15:50:06;48.85;;;26.92;;
47523;SDS011;33253;42.144;25.884;2022-12-07T15:52:37;45.58;;;27.55;;
47523;SDS011;33253;42.144;25.884;2022-12-07T15:55:03;44.95;;;28.08;;
47523;SDS011;33253;42.144;25.884;2022-12-07T15:57:29;44.30;;;25.73;;
47523;SDS011;33253;42.144;25.884;2022-12-07T15:59:56;48.25;;;27.08;;
47523;SDS011;33253;42.144;25.884;2022-12-07T16:02:21;50.00;;;27.85;;
47523;SDS011;33253;42.144;25.884;2022-12-07T16:04:48;43.33;;;26.40;;
47523;SDS011;33253;42.144;25.884;2022-12-07T16:07:15;48.08;;;26.52;;
47523;SDS011;33253;42.144;25.884;2022-12-07T16:09:42;49.63;;;26.95;;
47523;SDS011;33253;42.144;25.884;2022-12-07T16:12:08;44.88;;;27.48;;
47523;SDS011;33253;42.144;25.884;2022-12-07T16:14:54;46.33;;;27.05;;
47523;SDS011;33253;42.144;25.884;2022-12-07T16:17:20;46.20;;;26.92;;
47523;SDS011;33253;42.144;25.884;2022-12-07T16:19:46;39.15;;;26.38;;
47523;SDS011;33253;42.144;25.884;2022-12-07T16:22:11;51.88;;;28.70;;
47523;SDS011;33253;42.144;25.884;2022-12-07T16:24:37;45.83;;;26.63;;
47523;SDS011;33253;42.144;25.884;2022-12-07T16:27:02;50.90;;;27.05;;
47523;SDS011;33253;42.144;25.884;2022-12-07T16:29:28;61.25;;;28.58;;
47523;SDS011;33253;42.144;25.884;2022-12-07T16:31:53;47.88;;;27.95;;
47523;SDS011;33253;42.144;25.884;2022-12-07T16:34:18;51.55;;;29.42;;
47523;SDS011;33253;42.144;25.884;2022-12-07T16:36:44;55.47;;;28.90;;
47523;SDS011;33253;42.144;25.884;2022-12-07T16:39:10;53.63;;;29.30;;
47523;SDS011;33253;42.144;25.884;2022-12-07T16:41:36;52.38;;;28.90;;
47523;SDS011;33253;42.144;25.884;2022-12-07T16:44:02;54.95;;;31.17;;
47523;SDS011;33253;42.144;25.884;2022-12-07T16:46:31;52.92;;;29.83;;
47523;SDS011;33253;42.144;25.884;2022-12-07T16:48:58;49.97;;;30.35;;
47523;SDS011;33253;42.144;25.884;2022-12-07T16:51:23;57.00;;;30.85;;
47523;SDS011;33253;42.144;25.884;2022-12-07T16:53:49;48.70;;;28.55;;
47523;SDS011;33253;42.144;25.884;2022-12-07T16:56:17;63.17;;;30.30;;
47523;SDS011;33253;42.144;25.884;2022-12-07T16:58:43;58.78;;;29.05;;
47523;SDS011;33253;42.144;25.884;2022-12-07T17:01:12;49.63;;;28.95;;
47523;SDS011;33253;42.144;25.884;2022-12-07T17:03:42;55.85;;;29.98;;
47523;SDS011;33253;42.144;25.884;2022-12-07T17:06:16;64.93;;;31.90;;
47523;SDS011;33253;42.144;25.884;2022-12-07T17:08:46;56.17;;;31.50;;
47523;SDS011;33253;42.144;25.884;2022-12-07T17:11:13;55.40;;;34.50;;
47523;SDS011;33253;42.144;25.884;2022-12-07T17:13:40;59.20;;;33.22;;